sensor_id;sensor_type;location;lat;lon;timestamp;P1;durP1;ratioP1;P2;durP2;ratioP2
2474;SDS011;1248;48.694;10.160;2023-10-13T00:01:53;11.87;;;5.53;;
2474;SDS011;1248;48.694;10.160;2023-10-13T00:04:21;11.33;;;6.40;;
2474;SDS011;1248;48.694;10.160;2023-10-13T00:06:50;10.40;;;6.53;;
2474;SDS011;1248;48.694;10.160;2023-10-13T00:09:17;10.60;;;7.40;;
2474;SDS011;1248;48.694;10.160;2023-10-13T00:11:46;10.17;;;6.67;;
2474;SDS011;1248;48.694;10.160;2023-10-13T00:14:13;13.23;;;6.77;;
2474;SDS011;1248;48.694;10.160;2023-10-13T00:16:44;7.30;;;6.27;;
2474;SDS011;1248;48.694;10.160;2023-10-13T00:19:27;9.93;;;5.67;;
2474;SDS011;1248;48.694;10.160;2023-10-13T00:21:54;7.97;;;6.27;;
2474;SDS011;1248;48.694;10.160;2023-10-13T00:24:34;11.50;;;6.13;;
2474;SDS011;1248;48.694;10.160;2023-10-13T00:27:08;7.23;;;6.03;;
2474;SDS011;1248;48.694;10.160;2023-10-13T00:29:50;9.90;;;6.60;;
2474;SDS011;1248;48.694;10.160;2023-10-13T00:32:31;9.13;;;5.47;;
2474;SDS011;1248;48.694;10.160;2023-10-13T00:34:58;14.17;;;6.53;;
2474;SDS011;1248;48.694;10.160;2023-10-13T00:37:30;12.20;;;7.30;;
2474;SDS011;1248;48.694;10.160;2023-10-13T00:40:07;13.77;;;6.97;;
2474;SDS011;1248;48.694;10.160;2023-10-13T00:42:51;10.77;;;6.33;;
2474;SDS011;1248;48.694;10.160;2023-10-13T00:45:19;12.20;;;5.30;;
2474;SDS011;1248;48.694;10.160;2023-10-13T00:47:47;11.33;;;6.23;;
2474;SDS011;1248;48.694;10.160;2023-10-13T00:50:22;12.60;;;5.93;;
2474;SDS011;1248;48.694;10.160;2023-10-13T00:52:50;9.63;;;6.37;;
2474;SDS011;1248;48.694;10.160;2023-10-13T00:55:17;8.30;;;6.63;;
2474;SDS011;1248;48.694;10.160;2023-10-13T00:57:49;8.23;;;5.80;;
2474;SDS011;1248;48.694;10.160;2023-10-13T01:00:19;9.87;;;6.13;;
2474;SDS011;1248;48.694;10.160;2023-10-13T01:02:51;8.40;;;5.67;;
2474;SDS011;1248;48.694;10.160;2023-10-13T01:05:21;8.87;;;6.33;;
2474;SDS011;1248;48.694;10.160;2023-10-13T01:07:49;11.03;;;6.53;;
2474;SDS011;1248;48.694;10.160;2023-10-13T01:10:18;8.40;;;6.50;;
2474;SDS011;1248;48.694;10.160;2023-10-13T01:12:45;12.27;;;5.93;;
2474;SDS011;1248;48.694;10.160;2023-10-13T01:15:13;9.10;;;6.30;;
2474;SDS011;1248;48.694;10.160;2023-10-13T01:17:43;14.80;;;6.93;;
2474;SDS011;1248;48.694;10.160;2023-10-13T01:20:13;11.93;;;5.70;;
2474;SDS011;1248;48.694;10.160;2023-10-13T01:22:46;11.40;;;6.53;;
2474;SDS011;1248;48.694;10.160;2023-10-13T01:25:23;10.70;;;6.03;;
2474;SDS011;1248;48.694;10.160;2023-10-13T01:27:51;8.20;;;6.63;;
2474;SDS011;1248;48.694;10.160;2023-10-13T01:30:18;10.30;;;6.37;;
2474;SDS011;1248;48.694;10.160;2023-10-13T01:32:48;7.40;;;6.03;;
2474;SDS011;1248;48.694;10.160;2023-10-13T01:35:16;11.53;;;6.40;;
2474;SDS011;1248;48.694;10.160;2023-10-13T01:37:44;11.77;;;6.87;;
2474;SDS011;1248;48.694;10.160;2023-10-13T01:40:11;14.30;;;7.13;;
2474;SDS011;1248;48.694;10.160;2023-10-13T01:42:39;11.00;;;7.00;;
2474;SDS011;1248;48.694;10.160;2023-10-13T01:45:07;12.63;;;5.83;;
2474;SDS011;1248;48.694;10.160;2023-10-13T01:47:33;10.30;;;6.97;;
2474;SDS011;1248;48.694;10.160;2023-10-13T01:50:01;16.33;;;6.37;;
2474;SDS011;1248;48.694;10.160;2023-10-13T01:52:38;8.90;;;5.63;;
2474;SDS011;1248;48.694;10.160;2023-10-13T01:55:07;8.63;;;6.50;;
2474;SDS011;1248;48.694;10.160;2023-10-13T01:57:36;8.87;;;6.20;;
2474;SDS011;1248;48.694;10.160;2023-10-13T02:00:05;9.73;;;6.07;;
2474;SDS011;1248;48.694;10.160;2023-10-13T02:02:44;13.53;;;6.20;;
2474;SDS011;1248;48.694;10.160;2023-10-13T02:05:15;11.43;;;6.50;;
2474;SDS011;1248;48.694;10.160;2023-10-13T02:07:42;15.33;;;7.07;;
2474;SDS011;1248;48.694;10.160;2023-10-13T02:10:11;11.30;;;6.77;;
2474;SDS011;1248;48.694;10.160;2023-10-13T02:12:38;16.60;;;6.73;;
2474;SDS011;1248;48.694;10.160;2023-10-13T02:15:10;6.80;;;5.83;;
2474;SDS011;1248;48.694;10.160;2023-10-13T02:17:46;12.67;;;6.40;;
2474;SDS011;1248;48.694;10.160;2023-10-13T02:20:17;9.67;;;8.47;;
2474;SDS011;1248;48.694;10.160;2023-10-13T02:22:44;9.17;;;6.23;;
2474;SDS011;1248;48.694;10.160;2023-10-13T02:25:15;8.27;;;6.90;;
2474;SDS011;1248;48.694;10.160;2023-10-13T02:27:42;10.17;;;6.10;;
2474;SDS011;1248;48.694;10.160;2023-10-13T02:30:15;6.90;;;6.10;;
2474;SDS011;1248;48.694;10.160;2023-10-13T02:32:49;11.07;;;6.17;;
2474;SDS011;1248;48.694;10.160;2023-10-13T02:35:16;12.60;;;7.00;;
2474;SDS011;1248;48.694;10.160;2023-10-13T02:37:43;9.57;;;6.00;;
2474;SDS011;1248;48.694;10.160;2023-10-13T02:40:19;10.17;;;6.27;;
2474;SDS011;1248;48.694;10.160;2023-10-13T02:42:48;12.60;;;7.40;;
2474;SDS011;1248;48.694;10.160;2023-10-13T02:45:17;15.30;;;6.97;;
2474;SDS011;1248;48.694;10.160;2023-10-13T02:47:47;13.93;;;6.43;;
2474;SDS011;1248;48.694;10.160;2023-10-13T02:50:34;14.63;;;6.77;;
2474;SDS011;1248;48.694;10.160;2023-10-13T02:53:00;8.73;;;6.83;;
2474;SDS011;1248;48.694;10.160;2023-10-13T02:55:28;11.93;;;7.03;;
2474;SDS011;1248;48.694;10.160;2023-10-13T02:57:57;11.83;;;6.23;;
2474;SDS011;1248;48.694;10.160;2023-10-13T03:00:26;15.13;;;6.43;;
2474;SDS011;1248;48.694;10.160;2023-10-13T03:02:57;11.90;;;6.60;;
2474;SDS011;1248;48.694;10.160;2023-10-13T03:05:24;8.97;;;6.20;;
2474;SDS011;1248;48.694;10.160;2023-10-13T03:07:54;9.97;;;6.10;;
2474;SDS011;1248;48.694;10.160;2023-10-13T03:10:22;9.93;;;5.80;;
2474;SDS011;1248;48.694;10.160;2023-10-13T03:12:54;7.87;;;6.30;;
2474;SDS011;1248;48.694;10.160;2023-10-13T03:15:21;9.63;;;5.80;;
2474;SDS011;1248;48.694;10.160;2023-10-13T03:17:57;10.67;;;6.90;;
2474;SDS011;1248;48.694;10.160;2023-10-13T03:20:25;8.60;;;6.13;;
2474;SDS011;1248;48.694;10.160;2023-10-13T03:22:57;12.33;;;6.27;;
2474;SDS011;1248;48.694;10.160;2023-10-13T03:25:24;11.60;;;6.30;;
2474;SDS011;1248;48.694;10.160;2023-10-13T03:27:55;7.97;;;7.10;;
2474;SDS011;1248;48.694;10.160;2023-10-13T03:30:33;10.13;;;6.63;;
2474;SDS011;1248;48.694;10.160;2023-10-13T03:33:06;10.87;;;5.70;;
2474;SDS011;1248;48.694;10.160;2023-10-13T03:35:35;9.97;;;7.10;;
2474;SDS011;1248;48.694;10.160;2023-10-13T03:38:07;11.73;;;6.80;;
2474;SDS011;1248;48.694;10.160;2023-10-13T03:40:44;11.00;;;6.33;;
2474;SDS011;1248;48.694;10.160;2023-10-13T03:43:32;10.37;;;7.30;;
2474;SDS011;1248;48.694;10.160;2023-10-13T03:46:10;11.33;;;7.20;;
2474;SDS011;1248;48.694;10.160;2023-10-13T03:48:38;10.10;;;7.07;;
2474;SDS011;1248;48.694;10.160;2023-10-13T03:51:17;12.87;;;6.90;;
2474;SDS011;1248;48.694;10.160;2023-10-13T03:53:44;10.83;;;6.00;;
2474;SDS011;1248;48.694;10.160;2023-10-13T03:56:19;7.73;;;6.17;;
2474;SDS011;1248;48.694;10.160;2023-10-13T03:58:53;10.40;;;5.90;;
2474;SDS011;1248;48.694;10.160;2023-10-13T04:01:24;12.40;;;7.07;;
2474;SDS011;1248;48.694;10.160;2023-10-13T04:03:59;12.00;;;7.00;;
2474;SDS011;1248;48.694;10.160;2023-10-13T04:06:34;12.97;;;6.33;;
2474;SDS011;1248;48.694;10.160;2023-10-13T04:09:39;10.30;;;7.47;;
2474;SDS011;1248;48.694;10.160;2023-10-13T04:12:37;8.90;;;6.40;;
2474;SDS011;1248;48.694;10.160;2023-10-13T04:15:21;10.97;;;6.60;;
2474;SDS011;1248;48.694;10.160;2023-10-13T04:17:53;10.40;;;6.70;;
2474;SDS011;1248;48.694;10.160;2023-10-13T04:20:21;20.97;;;8.30;;
2474;SDS011;1248;48.694;10.160;2023-10-13T04:22:58;18.40;;;11.37;;
2474;SDS011;1248;48.694;10.160;2023-10-13T04:25:44;26.60;;;11.60;;
2474;SDS011;1248;48.694;10.160;2023-10-13T04:28:34;17.20;;;11.30;;
2474;SDS011;1248;48.694;10.160;2023-10-13T04:31:05;26.63;;;11.77;;
2474;SDS011;1248;48.694;10.160;2023-10-13T04:33:37;28.73;;;12.67;;
2474;SDS011;1248;48.694;10.160;2023-10-13T04:36:19;23.03;;;11.77;;
2474;SDS011;1248;48.694;10.160;2023-10-13T04:39:02;17.60;;;10.70;;
2474;SDS011;1248;48.694;10.160;2023-10-13T04:41:36;20.43;;;9.97;;
2474;SDS011;1248;48.694;10.160;2023-10-13T04:44:05;23.60;;;11.00;;
2474;SDS011;1248;48.694;10.160;2023-10-13T04:46:52;18.73;;;9.90;;
2474;SDS011;1248;48.694;10.160;2023-10-13T04:49:34;16.63;;;10.63;;
2474;SDS011;1248;48.694;10.160;2023-10-13T04:52:16;22.80;;;10.63;;
2474;SDS011;1248;48.694;10.160;2023-10-13T04:55:01;21.80;;;12.30;;
2474;SDS011;1248;48.694;10.160;2023-10-13T04:57:42;24.83;;;12.07;;
2474;SDS011;1248;48.694;10.160;2023-10-13T05:00:13;20.47;;;11.57;;
2474;SDS011;1248;48.694;10.160;2023-10-13T05:02:58;20.63;;;10.93;;
2474;SDS011;1248;48.694;10.160;2023-10-13T05:05:43;24.10;;;11.17;;
2474;SDS011;1248;48.694;10.160;2023-10-13T05:08:40;22.57;;;12.30;;
2474;SDS011;1248;48.694;10.160;2023-10-13T05:11:25;26.30;;;12.80;;
2474;SDS011;1248;48.694;10.160;2023-10-13T05:14:09;25.03;;;13.40;;
2474;SDS011;1248;48.694;10.160;2023-10-13T05:16:54;24.83;;;11.47;;
2474;SDS011;1248;48.694;10.160;2023-10-13T05:19:38;26.30;;;10.77;;
2474;SDS011;1248;48.694;10.160;2023-10-13T05:22:23;23.60;;;12.47;;
2474;SDS011;1248;48.694;10.160;2023-10-13T05:25:08;20.40;;;11.37;;
2474;SDS011;1248;48.694;10.160;2023-10-13T05:27:53;20.77;;;10.33;;
2474;SDS011;1248;48.694;10.160;2023-10-13T05:30:37;23.17;;;11.77;;
2474;SDS011;1248;48.694;10.160;2023-10-13T05:33:23;26.77;;;10.57;;
2474;SDS011;1248;48.694;10.160;2023-10-13T05:36:09;13.53;;;8.90;;
2474;SDS011;1248;48.694;10.160;2023-10-13T05:38:54;15.70;;;9.23;;
2474;SDS011;1248;48.694;10.160;2023-10-13T05:41:40;15.93;;;9.47;;
2474;SDS011;1248;48.694;10.160;2023-10-13T05:44:24;16.87;;;9.53;;
2474;SDS011;1248;48.694;10.160;2023-10-13T05:47:03;12.83;;;7.80;;
2474;SDS011;1248;48.694;10.160;2023-10-13T05:50:09;15.80;;;9.20;;
2474;SDS011;1248;48.694;10.160;2023-10-13T05:52:54;20.20;;;9.83;;
2474;SDS011;1248;48.694;10.160;2023-10-13T05:55:35;12.27;;;8.60;;
2474;SDS011;1248;48.694;10.160;2023-10-13T05:58:21;16.10;;;8.23;;
2474;SDS011;1248;48.694;10.160;2023-10-13T06:01:05;14.13;;;8.00;;
2474;SDS011;1248;48.694;10.160;2023-10-13T06:03:50;14.50;;;8.03;;
2474;SDS011;1248;48.694;10.160;2023-10-13T06:06:34;12.70;;;7.80;;
2474;SDS011;1248;48.694;10.160;2023-10-13T06:09:19;10.33;;;7.30;;
2474;SDS011;1248;48.694;10.160;2023-10-13T06:12:03;15.03;;;8.00;;
2474;SDS011;1248;48.694;10.160;2023-10-13T06:14:49;10.80;;;7.93;;
2474;SDS011;1248;48.694;10.160;2023-10-13T06:17:33;9.77;;;7.47;;
2474;SDS011;1248;48.694;10.160;2023-10-13T06:20:18;12.53;;;8.47;;
2474;SDS011;1248;48.694;10.160;2023-10-13T06:23:03;13.30;;;7.60;;
2474;SDS011;1248;48.694;10.160;2023-10-13T06:25:50;12.93;;;8.00;;
2474;SDS011;1248;48.694;10.160;2023-10-13T06:28:34;14.33;;;8.50;;
2474;SDS011;1248;48.694;10.160;2023-10-13T06:31:09;17.30;;;8.10;;
2474;SDS011;1248;48.694;10.160;2023-10-13T06:33:46;15.77;;;7.97;;
2474;SDS011;1248;48.694;10.160;2023-10-13T06:36:13;13.87;;;8.80;;
2474;SDS011;1248;48.694;10.160;2023-10-13T06:38:43;14.07;;;8.90;;
2474;SDS011;1248;48.694;10.160;2023-10-13T06:41:10;13.30;;;8.30;;
2474;SDS011;1248;48.694;10.160;2023-10-13T06:43:45;13.03;;;8.50;;
2474;SDS011;1248;48.694;10.160;2023-10-13T06:46:27;12.40;;;8.37;;
2474;SDS011;1248;48.694;10.160;2023-10-13T06:48:54;16.30;;;7.70;;
2474;SDS011;1248;48.694;10.160;2023-10-13T06:51:25;14.60;;;7.83;;
2474;SDS011;1248;48.694;10.160;2023-10-13T06:53:56;15.63;;;7.87;;
2474;SDS011;1248;48.694;10.160;2023-10-13T06:56:23;13.00;;;8.17;;
2474;SDS011;1248;48.694;10.160;2023-10-13T06:58:54;14.77;;;9.33;;
2474;SDS011;1248;48.694;10.160;2023-10-13T07:01:27;12.87;;;8.33;;
2474;SDS011;1248;48.694;10.160;2023-10-13T07:03:54;10.67;;;7.40;;
2474;SDS011;1248;48.694;10.160;2023-10-13T07:06:26;13.40;;;7.17;;
2474;SDS011;1248;48.694;10.160;2023-10-13T07:08:53;13.20;;;8.30;;
2474;SDS011;1248;48.694;10.160;2023-10-13T07:11:24;10.23;;;7.07;;
2474;SDS011;1248;48.694;10.160;2023-10-13T07:14:00;12.67;;;7.67;;
2474;SDS011;1248;48.694;10.160;2023-10-13T07:16:43;19.37;;;8.17;;
2474;SDS011;1248;48.694;10.160;2023-10-13T07:19:12;12.00;;;7.30;;
2474;SDS011;1248;48.694;10.160;2023-10-13T07:21:43;12.63;;;8.57;;
2474;SDS011;1248;48.694;10.160;2023-10-13T07:24:11;24.80;;;7.80;;
2474;SDS011;1248;48.694;10.160;2023-10-13T07:26:39;14.83;;;6.73;;
2474;SDS011;1248;48.694;10.160;2023-10-13T07:29:11;17.73;;;8.40;;
2474;SDS011;1248;48.694;10.160;2023-10-13T07:31:41;16.90;;;7.43;;
2474;SDS011;1248;48.694;10.160;2023-10-13T07:34:10;17.10;;;8.23;;
2474;SDS011;1248;48.694;10.160;2023-10-13T07:36:51;16.23;;;8.20;;
2474;SDS011;1248;48.694;10.160;2023-10-13T07:39:20;13.17;;;7.80;;
2474;SDS011;1248;48.694;10.160;2023-10-13T07:41:49;15.53;;;8.07;;
2474;SDS011;1248;48.694;10.160;2023-10-13T07:44:21;11.37;;;8.30;;
2474;SDS011;1248;48.694;10.160;2023-10-13T07:46:52;16.00;;;8.47;;
2474;SDS011;1248;48.694;10.160;2023-10-13T07:49:27;14.90;;;8.67;;
2474;SDS011;1248;48.694;10.160;2023-10-13T07:52:00;12.73;;;8.27;;
2474;SDS011;1248;48.694;10.160;2023-10-13T07:54:43;16.60;;;7.90;;
2474;SDS011;1248;48.694;10.160;2023-10-13T07:57:13;15.83;;;9.83;;
2474;SDS011;1248;48.694;10.160;2023-10-13T07:59:41;12.27;;;7.10;;
2474;SDS011;1248;48.694;10.160;2023-10-13T08:02:15;14.10;;;7.10;;
2474;SDS011;1248;48.694;10.160;2023-10-13T08:05:02;10.60;;;7.37;;
2474;SDS011;1248;48.694;10.160;2023-10-13T08:07:30;13.97;;;6.90;;
2474;SDS011;1248;48.694;10.160;2023-10-13T08:09:57;21.20;;;7.73;;
2474;SDS011;1248;48.694;10.160;2023-10-13T08:12:25;18.13;;;7.17;;
2474;SDS011;1248;48.694;10.160;2023-10-13T08:14:53;17.93;;;7.10;;
2474;SDS011;1248;48.694;10.160;2023-10-13T08:17:38;12.07;;;5.77;;
2474;SDS011;1248;48.694;10.160;2023-10-13T08:20:10;12.57;;;5.40;;
2474;SDS011;1248;48.694;10.160;2023-10-13T08:22:38;12.53;;;7.60;;
2474;SDS011;1248;48.694;10.160;2023-10-13T08:25:12;21.10;;;7.07;;
2474;SDS011;1248;48.694;10.160;2023-10-13T08:27:50;16.97;;;6.70;;
2474;SDS011;1248;48.694;10.160;2023-10-13T08:30:50;17.13;;;6.97;;
2474;SDS011;1248;48.694;10.160;2023-10-13T08:33:23;15.30;;;5.87;;
2474;SDS011;1248;48.694;10.160;2023-10-13T08:35:53;12.27;;;6.87;;
2474;SDS011;1248;48.694;10.160;2023-10-13T08:38:44;12.10;;;5.47;;
2474;SDS011;1248;48.694;10.160;2023-10-13T08:41:17;16.70;;;7.10;;
2474;SDS011;1248;48.694;10.160;2023-10-13T08:43:59;18.37;;;11.30;;
2474;SDS011;1248;48.694;10.160;2023-10-13T08:46:30;17.13;;;6.80;;
2474;SDS011;1248;48.694;10.160;2023-10-13T08:49:18;14.97;;;5.07;;
2474;SDS011;1248;48.694;10.160;2023-10-13T08:51:48;13.93;;;6.50;;
2474;SDS011;1248;48.694;10.160;2023-10-13T08:54:30;18.83;;;7.83;;
2474;SDS011;1248;48.694;10.160;2023-10-13T08:57:05;49.30;;;14.73;;
2474;SDS011;1248;48.694;10.160;2023-10-13T08:59:58;16.73;;;5.20;;
2474;SDS011;1248;48.694;10.160;2023-10-13T09:02:45;9.87;;;5.40;;
2474;SDS011;1248;48.694;10.160;2023-10-13T09:05:43;17.23;;;4.87;;
2474;SDS011;1248;48.694;10.160;2023-10-13T09:08:26;18.90;;;5.00;;
2474;SDS011;1248;48.694;10.160;2023-10-13T09:11:01;12.70;;;4.83;;
2474;SDS011;1248;48.694;10.160;2023-10-13T09:13:37;9.97;;;5.30;;
2474;SDS011;1248;48.694;10.160;2023-10-13T09:16:12;12.57;;;5.23;;
2474;SDS011;1248;48.694;10.160;2023-10-13T09:18:48;7.53;;;4.40;;
2474;SDS011;1248;48.694;10.160;2023-10-13T09:21:19;8.23;;;4.23;;
2474;SDS011;1248;48.694;10.160;2023-10-13T09:24:13;10.03;;;4.87;;
2474;SDS011;1248;48.694;10.160;2023-10-13T09:26:47;9.73;;;4.80;;
2474;SDS011;1248;48.694;10.160;2023-10-13T09:29:18;10.63;;;4.80;;
2474;SDS011;1248;48.694;10.160;2023-10-13T09:31:58;11.47;;;4.30;;
2474;SDS011;1248;48.694;10.160;2023-10-13T09:34:27;7.63;;;3.70;;
2474;SDS011;1248;48.694;10.160;2023-10-13T09:36:58;8.37;;;4.20;;
2474;SDS011;1248;48.694;10.160;2023-10-13T09:39:28;8.17;;;3.60;;
2474;SDS011;1248;48.694;10.160;2023-10-13T09:42:05;7.90;;;3.90;;
2474;SDS011;1248;48.694;10.160;2023-10-13T09:44:36;8.73;;;3.43;;
2474;SDS011;1248;48.694;10.160;2023-10-13T09:47:07;19.47;;;4.50;;
2474;SDS011;1248;48.694;10.160;2023-10-13T09:49:43;11.13;;;4.10;;
2474;SDS011;1248;48.694;10.160;2023-10-13T09:52:18;6.03;;;2.90;;
2474;SDS011;1248;48.694;10.160;2023-10-13T09:54:49;9.53;;;3.70;;
2474;SDS011;1248;48.694;10.160;2023-10-13T09:57:26;9.27;;;3.20;;
2474;SDS011;1248;48.694;10.160;2023-10-13T10:00:06;7.80;;;3.60;;
2474;SDS011;1248;48.694;10.160;2023-10-13T10:02:59;10.20;;;3.73;;
2474;SDS011;1248;48.694;10.160;2023-10-13T10:05:40;10.70;;;3.30;;
2474;SDS011;1248;48.694;10.160;2023-10-13T10:08:11;9.40;;;3.63;;
2474;SDS011;1248;48.694;10.160;2023-10-13T10:10:43;14.83;;;4.00;;
2474;SDS011;1248;48.694;10.160;2023-10-13T10:13:15;7.10;;;2.63;;
2474;SDS011;1248;48.694;10.160;2023-10-13T10:15:48;9.73;;;3.53;;
2474;SDS011;1248;48.694;10.160;2023-10-13T10:18:19;16.10;;;4.60;;
2474;SDS011;1248;48.694;10.160;2023-10-13T10:20:48;11.63;;;3.83;;
2474;SDS011;1248;48.694;10.160;2023-10-13T10:23:26;7.10;;;3.97;;
2474;SDS011;1248;48.694;10.160;2023-10-13T10:25:55;11.10;;;2.87;;
2474;SDS011;1248;48.694;10.160;2023-10-13T10:28:35;16.50;;;4.37;;
2474;SDS011;1248;48.694;10.160;2023-10-13T10:31:04;8.00;;;3.00;;
2474;SDS011;1248;48.694;10.160;2023-10-13T10:33:31;10.80;;;3.70;;
2474;SDS011;1248;48.694;10.160;2023-10-13T10:35:59;12.33;;;3.97;;
2474;SDS011;1248;48.694;10.160;2023-10-13T10:38:28;7.67;;;3.03;;
2474;SDS011;1248;48.694;10.160;2023-10-13T10:41:03;8.97;;;2.80;;
2474;SDS011;1248;48.694;10.160;2023-10-13T10:43:35;9.23;;;3.57;;
2474;SDS011;1248;48.694;10.160;2023-10-13T10:46:08;7.30;;;3.10;;
2474;SDS011;1248;48.694;10.160;2023-10-13T10:48:36;8.50;;;3.43;;
2474;SDS011;1248;48.694;10.160;2023-10-13T10:51:08;15.13;;;3.57;;
2474;SDS011;1248;48.694;10.160;2023-10-13T10:53:48;7.83;;;2.97;;
2474;SDS011;1248;48.694;10.160;2023-10-13T10:56:17;8.60;;;3.10;;
2474;SDS011;1248;48.694;10.160;2023-10-13T10:58:49;8.83;;;3.43;;
2474;SDS011;1248;48.694;10.160;2023-10-13T11:01:20;8.23;;;3.30;;
2474;SDS011;1248;48.694;10.160;2023-10-13T11:03:54;12.90;;;3.50;;
2474;SDS011;1248;48.694;10.160;2023-10-13T11:06:24;11.70;;;3.10;;
2474;SDS011;1248;48.694;10.160;2023-10-13T11:09:02;11.03;;;3.63;;
2474;SDS011;1248;48.694;10.160;2023-10-13T11:11:33;8.93;;;3.03;;
2474;SDS011;1248;48.694;10.160;2023-10-13T11:14:01;8.50;;;3.60;;
2474;SDS011;1248;48.694;10.160;2023-10-13T11:16:46;8.10;;;2.70;;
2474;SDS011;1248;48.694;10.160;2023-10-13T11:19:19;8.77;;;2.93;;
2474;SDS011;1248;48.694;10.160;2023-10-13T11:21:53;5.90;;;3.10;;
2474;SDS011;1248;48.694;10.160;2023-10-13T11:24:25;10.13;;;3.20;;
2474;SDS011;1248;48.694;10.160;2023-10-13T11:26:52;8.30;;;3.50;;
2474;SDS011;1248;48.694;10.160;2023-10-13T11:29:30;5.60;;;3.13;;
2474;SDS011;1248;48.694;10.160;2023-10-13T11:31:59;11.43;;;4.17;;
2474;SDS011;1248;48.694;10.160;2023-10-13T11:34:28;11.70;;;3.60;;
2474;SDS011;1248;48.694;10.160;2023-10-13T11:37:05;9.33;;;2.87;;
2474;SDS011;1248;48.694;10.160;2023-10-13T11:39:48;12.03;;;3.20;;
2474;SDS011;1248;48.694;10.160;2023-10-13T11:42:17;7.80;;;2.50;;
2474;SDS011;1248;48.694;10.160;2023-10-13T11:44:44;6.20;;;3.00;;
2474;SDS011;1248;48.694;10.160;2023-10-13T11:47:11;8.90;;;3.77;;
2474;SDS011;1248;48.694;10.160;2023-10-13T11:49:55;12.70;;;3.83;;
2474;SDS011;1248;48.694;10.160;2023-10-13T11:52:25;13.33;;;3.43;;
2474;SDS011;1248;48.694;10.160;2023-10-13T11:54:56;11.13;;;3.30;;
2474;SDS011;1248;48.694;10.160;2023-10-13T11:57:23;7.60;;;3.13;;
2474;SDS011;1248;48.694;10.160;2023-10-13T11:59:50;8.00;;;3.50;;
2474;SDS011;1248;48.694;10.160;2023-10-13T12:02:21;7.20;;;2.90;;
2474;SDS011;1248;48.694;10.160;2023-10-13T12:05:06;8.27;;;2.90;;
2474;SDS011;1248;48.694;10.160;2023-10-13T12:07:42;5.83;;;3.37;;
2474;SDS011;1248;48.694;10.160;2023-10-13T12:10:15;15.47;;;3.00;;
2474;SDS011;1248;48.694;10.160;2023-10-13T12:12:59;7.87;;;3.83;;
2474;SDS011;1248;48.694;10.160;2023-10-13T12:15:32;5.47;;;3.10;;
2474;SDS011;1248;48.694;10.160;2023-10-13T12:18:14;8.50;;;3.07;;
2474;SDS011;1248;48.694;10.160;2023-10-13T12:20:42;8.73;;;2.70;;
2474;SDS011;1248;48.694;10.160;2023-10-13T12:23:11;8.50;;;2.50;;
2474;SDS011;1248;48.694;10.160;2023-10-13T12:25:44;4.60;;;2.80;;
2474;SDS011;1248;48.694;10.160;2023-10-13T12:28:21;11.67;;;3.90;;
2474;SDS011;1248;48.694;10.160;2023-10-13T12:30:51;8.03;;;3.40;;
2474;SDS011;1248;48.694;10.160;2023-10-13T12:33:19;9.83;;;4.00;;
2474;SDS011;1248;48.694;10.160;2023-10-13T12:35:58;7.97;;;3.00;;
2474;SDS011;1248;48.694;10.160;2023-10-13T12:38:53;12.57;;;2.90;;
2474;SDS011;1248;48.694;10.160;2023-10-13T12:41:38;10.67;;;3.13;;
2474;SDS011;1248;48.694;10.160;2023-10-13T12:44:23;7.87;;;2.67;;
2474;SDS011;1248;48.694;10.160;2023-10-13T12:47:08;10.70;;;3.40;;
2474;SDS011;1248;48.694;10.160;2023-10-13T12:49:53;5.37;;;2.50;;
2474;SDS011;1248;48.694;10.160;2023-10-13T12:52:25;8.93;;;3.20;;
2474;SDS011;1248;48.694;10.160;2023-10-13T12:54:52;7.90;;;3.27;;
2474;SDS011;1248;48.694;10.160;2023-10-13T12:57:33;6.17;;;2.80;;
2474;SDS011;1248;48.694;10.160;2023-10-13T13:00:09;8.47;;;2.93;;
2474;SDS011;1248;48.694;10.160;2023-10-13T13:02:59;10.73;;;3.30;;
2474;SDS011;1248;48.694;10.160;2023-10-13T13:05:26;7.57;;;3.13;;
2474;SDS011;1248;48.694;10.160;2023-10-13T13:07:57;8.53;;;3.50;;
2474;SDS011;1248;48.694;10.160;2023-10-13T13:10:24;10.20;;;3.13;;
2474;SDS011;1248;48.694;10.160;2023-10-13T13:13:03;6.20;;;3.40;;
2474;SDS011;1248;48.694;10.160;2023-10-13T13:15:31;7.00;;;3.07;;
2474;SDS011;1248;48.694;10.160;2023-10-13T13:17:58;23.27;;;3.57;;
2474;SDS011;1248;48.694;10.160;2023-10-13T13:20:35;4.43;;;2.70;;
2474;SDS011;1248;48.694;10.160;2023-10-13T13:23:04;6.53;;;3.00;;
2474;SDS011;1248;48.694;10.160;2023-10-13T13:25:32;7.90;;;3.33;;
2474;SDS011;1248;48.694;10.160;2023-10-13T13:27:59;7.03;;;3.50;;
2474;SDS011;1248;48.694;10.160;2023-10-13T13:30:32;9.67;;;3.00;;
2474;SDS011;1248;48.694;10.160;2023-10-13T13:33:00;6.23;;;3.10;;
2474;SDS011;1248;48.694;10.160;2023-10-13T13:35:36;8.73;;;3.43;;
2474;SDS011;1248;48.694;10.160;2023-10-13T13:38:03;9.90;;;2.53;;
2474;SDS011;1248;48.694;10.160;2023-10-13T13:40:38;5.93;;;3.37;;
2474;SDS011;1248;48.694;10.160;2023-10-13T13:43:05;4.13;;;2.20;;
2474;SDS011;1248;48.694;10.160;2023-10-13T13:45:34;12.70;;;2.90;;
2474;SDS011;1248;48.694;10.160;2023-10-13T13:48:07;7.60;;;2.63;;
2474;SDS011;1248;48.694;10.160;2023-10-13T13:50:41;10.73;;;3.53;;
2474;SDS011;1248;48.694;10.160;2023-10-13T13:53:10;5.03;;;2.80;;
2474;SDS011;1248;48.694;10.160;2023-10-13T13:55:37;6.43;;;3.30;;
2474;SDS011;1248;48.694;10.160;2023-10-13T13:58:05;5.87;;;3.30;;
2474;SDS011;1248;48.694;10.160;2023-10-13T14:00:38;9.10;;;3.37;;
2474;SDS011;1248;48.694;10.160;2023-10-13T14:03:12;17.63;;;3.03;;
2474;SDS011;1248;48.694;10.160;2023-10-13T14:05:56;5.70;;;2.93;;
2474;SDS011;1248;48.694;10.160;2023-10-13T14:08:24;8.50;;;3.23;;
2474;SDS011;1248;48.694;10.160;2023-10-13T14:10:53;10.27;;;3.60;;
2474;SDS011;1248;48.694;10.160;2023-10-13T14:13:37;9.77;;;3.00;;
2474;SDS011;1248;48.694;10.160;2023-10-13T14:16:22;7.97;;;3.13;;
2474;SDS011;1248;48.694;10.160;2023-10-13T14:18:50;5.67;;;2.67;;
2474;SDS011;1248;48.694;10.160;2023-10-13T14:21:17;9.80;;;3.20;;
2474;SDS011;1248;48.694;10.160;2023-10-13T14:23:46;7.70;;;3.07;;
2474;SDS011;1248;48.694;10.160;2023-10-13T14:26:15;6.93;;;2.53;;
2474;SDS011;1248;48.694;10.160;2023-10-13T14:28:45;6.07;;;3.00;;
2474;SDS011;1248;48.694;10.160;2023-10-13T14:31:27;6.03;;;3.40;;
2474;SDS011;1248;48.694;10.160;2023-10-13T14:33:54;6.63;;;3.20;;
2474;SDS011;1248;48.694;10.160;2023-10-13T14:36:22;8.70;;;3.43;;
2474;SDS011;1248;48.694;10.160;2023-10-13T14:38:49;5.87;;;3.20;;
2474;SDS011;1248;48.694;10.160;2023-10-13T14:41:16;7.90;;;3.00;;
2474;SDS011;1248;48.694;10.160;2023-10-13T14:43:44;13.70;;;4.30;;
2474;SDS011;1248;48.694;10.160;2023-10-13T14:46:14;9.90;;;3.30;;
2474;SDS011;1248;48.694;10.160;2023-10-13T14:48:43;8.70;;;3.27;;
2474;SDS011;1248;48.694;10.160;2023-10-13T14:51:10;10.43;;;3.20;;
2474;SDS011;1248;48.694;10.160;2023-10-13T14:53:39;4.93;;;2.90;;
2474;SDS011;1248;48.694;10.160;2023-10-13T14:56:09;10.70;;;3.20;;
2474;SDS011;1248;48.694;10.160;2023-10-13T14:58:38;13.67;;;3.77;;
2474;SDS011;1248;48.694;10.160;2023-10-13T15:01:12;9.70;;;4.23;;
2474;SDS011;1248;48.694;10.160;2023-10-13T15:03:42;8.50;;;3.23;;
2474;SDS011;1248;48.694;10.160;2023-10-13T15:06:14;7.70;;;3.30;;
2474;SDS011;1248;48.694;10.160;2023-10-13T15:08:43;10.33;;;3.40;;
2474;SDS011;1248;48.694;10.160;2023-10-13T15:11:11;10.47;;;4.17;;
2474;SDS011;1248;48.694;10.160;2023-10-13T15:13:39;9.60;;;4.00;;
2474;SDS011;1248;48.694;10.160;2023-10-13T15:16:12;7.07;;;2.93;;
2474;SDS011;1248;48.694;10.160;2023-10-13T15:18:44;9.63;;;3.80;;
2474;SDS011;1248;48.694;10.160;2023-10-13T15:21:11;11.17;;;3.17;;
2474;SDS011;1248;48.694;10.160;2023-10-13T15:23:44;8.47;;;3.70;;
2474;SDS011;1248;48.694;10.160;2023-10-13T15:26:11;11.57;;;3.40;;
2474;SDS011;1248;48.694;10.160;2023-10-13T15:28:40;7.07;;;3.20;;
2474;SDS011;1248;48.694;10.160;2023-10-13T15:31:14;8.93;;;3.03;;
2474;SDS011;1248;48.694;10.160;2023-10-13T15:34:04;8.73;;;3.60;;
2474;SDS011;1248;48.694;10.160;2023-10-13T15:36:38;8.73;;;3.60;;